Time;durP1;ratioP1;P1;durP2;ratioP2;P2;SDS_P1;SDS_P2;PMS_P1;PMS_P2;Temp;Humidity;BMP_temperature;BMP_pressure;BME280_temperature;BME280_humidity;BME280_pressure;Samples;Min_cycle;Max_cycle;Signal;HPM_P1;HPM_P2
2023/05/09 00:00:09;;;;;;;17.60;12.35;;;15.10;99.90;;;;;;5055959;28;20032;-67
2023/05/09 00:02:40;;;;;;;18.65;11.65;;;15.10;99.90;;;;;;5056556;28;20052;-66
2023/05/09 00:05:08;;;;;;;16.35;11.25;;;15.20;99.90;;;;;;5056544;28;20413;-65
2023/05/09 00:07:34;;;;;;;15.90;11.38;;;15.20;99.90;;;;;;5060290;28;20029;-65
2023/05/09 00:10:00;;;;;;;17.67;11.13;;;15.10;99.90;;;;;;5060564;28;20029;-66
2023/05/09 00:12:27;;;;;;;17.35;10.52;;;15.10;99.90;;;;;;5060032;28;20037;-65
2023/05/09 00:14:55;;;;;;;16.58;11.13;;;15.00;99.90;;;;;;5060143;28;20044;-64
2023/05/09 00:17:22;;;;;;;16.70;10.38;;;15.00;99.90;;;;;;5076241;28;20036;-64
2023/05/09 00:19:51;;;;;;;16.35;10.43;;;14.90;99.90;;;;;;5060497;28;20021;-65
2023/05/09 00:22:20;;;;;;;14.25;10.20;;;15.00;99.90;;;;;;5060471;28;20033;-64
2023/05/09 00:24:46;;;;;;;15.95;10.35;;;15.10;99.90;;;;;;5060307;28;20033;-65
2023/05/09 00:27:12;;;;;;;15.55;10.05;;;15.00;99.90;;;;;;5060293;28;20419;-65
2023/05/09 00:29:38;;;;;;;16.73;10.52;;;15.10;99.90;;;;;;5076095;28;20095;-66
2023/05/09 00:32:05;;;;;;;15.93;10.25;;;15.10;99.90;;;;;;5060233;28;20404;-64
2023/05/09 00:34:30;;;;;;;13.95;9.70;;;15.00;99.90;;;;;;5060180;28;20086;-64
2023/05/09 00:36:59;;;;;;;14.23;9.93;;;14.90;99.90;;;;;;5075773;28;20097;-64
2023/05/09 00:39:25;;;;;;;13.88;9.90;;;14.80;99.90;;;;;;5060017;28;20036;-63
2023/05/09 00:41:52;;;;;;;14.98;9.88;;;14.80;99.90;;;;;;5059240;28;20020;-64
2023/05/09 00:44:17;;;;;;;13.68;9.63;;;14.80;99.90;;;;;;5059916;28;20024;-64
2023/05/09 00:46:44;;;;;;;12.30;9.52;;;14.90;99.90;;;;;;5059205;28;20292;-64
2023/05/09 00:49:12;;;;;;;14.23;9.43;;;14.90;99.90;;;;;;5059826;28;20040;-64
2023/05/09 00:51:40;;;;;;;13.82;8.90;;;14.90;99.90;;;;;;5075646;28;20112;-65
2023/05/09 00:54:07;;;;;;;16.10;9.48;;;14.80;99.90;;;;;;5059743;28;20474;-64
2023/05/09 00:56:33;;;;;;;13.27;9.48;;;14.90;99.90;;;;;;5075659;28;20037;-66
2023/05/09 00:58:59;;;;;;;13.77;9.40;;;14.80;99.90;;;;;;5059565;28;20424;-66
2023/05/09 01:01:25;;;;;;;11.18;8.90;;;14.80;99.90;;;;;;5059544;28;20029;-65
2023/05/09 01:03:52;;;;;;;11.57;8.63;;;14.70;99.90;;;;;;5059417;28;20451;-65
2023/05/09 01:06:31;;;;;;;10.90;9.13;;;14.80;99.90;;;;;;5059566;28;20297;-64
2023/05/09 01:09:16;;;;;;;12.73;9.40;;;14.80;99.90;;;;;;5075444;28;20040;-65
2023/05/09 01:12:08;;;;;;;12.35;9.45;;;14.70;99.90;;;;;;5058702;28;20152;-64
2023/05/09 01:15:00;;;;;;;14.57;9.70;;;14.70;99.90;;;;;;5059397;28;20043;-65
2023/05/09 01:18:13;;;;;;;12.90;9.07;;;14.70;99.90;;;;;;5059188;28;20403;-65
2023/05/09 01:20:46;;;;;;;14.85;8.80;;;14.80;99.90;;;;;;4979068;28;20074;-65
2023/05/09 01:23:24;;;;;;;14.25;9.40;;;14.90;99.90;;;;;;4979106;28;20358;-65
2023/05/09 01:26:18;;;;;;;13.82;8.95;;;14.80;99.90;;;;;;5027111;28;20095;-65
2023/05/09 01:29:14;;;;;;;11.15;7.72;;;14.70;99.90;;;;;;5059122;28;20269;-65
2023/05/09 01:31:43;;;;;;;11.60;8.48;;;14.70;99.90;;;;;;5044917;28;20044;-65
2023/05/09 01:34:11;;;;;;;11.13;8.82;;;14.60;99.90;;;;;;5059201;28;20048;-65
2023/05/09 01:36:40;;;;;;;11.75;8.80;;;14.70;99.90;;;;;;5058966;28;20025;-66
2023/05/09 01:39:10;;;;;;;14.75;8.40;;;14.70;99.90;;;;;;5058820;28;20033;-64
2023/05/09 01:41:38;;;;;;;13.70;8.52;;;14.60;99.90;;;;;;5058919;28;20024;-65
2023/05/09 01:44:08;;;;;;;9.30;7.60;;;14.60;99.90;;;;;;5058952;28;20033;-66
2023/05/09 01:46:36;;;;;;;11.23;8.27;;;14.60;99.90;;;;;;5058876;28;20270;-65
2023/05/09 01:49:04;;;;;;;12.15;8.52;;;14.70;99.90;;;;;;5074648;28;20347;-65
2023/05/09 01:51:33;;;;;;;9.43;7.80;;;14.60;99.90;;;;;;5058720;28;20037;-65
2023/05/09 01:54:00;;;;;;;11.43;7.78;;;14.60;99.90;;;;;;5058019;28;20036;-66
2023/05/09 01:56:27;;;;;;;11.27;8.25;;;14.70;99.90;;;;;;5059185;28;20098;-66
2023/05/09 01:58:55;;;;;;;8.63;7.57;;;14.60;99.90;;;;;;5058433;28;20120;-67
2023/05/09 02:01:22;;;;;;;9.82;8.05;;;14.60;99.90;;;;;;5058576;28;20401;-66
2023/05/09 02:03:51;;;;;;;9.30;7.90;;;14.80;99.90;;;;;;5057757;28;20053;-66
2023/05/09 02:06:20;;;;;;;9.68;7.50;;;14.80;99.90;;;;;;5058501;28;20078;-66
2023/05/09 02:08:48;;;;;;;9.82;7.88;;;14.70;99.90;;;;;;5074326;28;20098;-66
2023/05/09 02:11:14;;;;;;;9.15;7.65;;;14.80;99.90;;;;;;5074237;28;20056;-66
2023/05/09 02:13:40;;;;;;;11.32;8.30;;;14.80;99.90;;;;;;5074203;28;20131;-66
2023/05/09 02:16:08;;;;;;;9.10;7.82;;;14.80;99.90;;;;;;5074405;28;20044;-67
2023/05/09 02:18:36;;;;;;;10.45;7.60;;;14.80;99.90;;;;;;5074053;28;20029;-67
2023/05/09 02:21:02;;;;;;;8.82;7.15;;;14.90;99.90;;;;;;5058085;28;20033;-66
2023/05/09 02:23:28;;;;;;;10.02;7.38;;;14.80;99.90;;;;;;5058097;28;20029;-66
2023/05/09 02:25:54;;;;;;;9.43;7.60;;;14.70;99.90;;;;;;5058118;28;20041;-67
2023/05/09 02:28:24;;;;;;;8.52;7.57;;;14.60;99.90;;;;;;5056785;28;20141;-66
2023/05/09 02:30:52;;;;;;;9.95;7.65;;;14.60;99.90;;;;;;5073723;28;20036;-66
2023/05/09 02:33:17;;;;;;;11.13;7.47;;;14.60;99.90;;;;;;5057792;28;20036;-66
2023/05/09 02:35:45;;;;;;;8.85;7.38;;;14.60;99.90;;;;;;5057831;28;20300;-65
2023/05/09 02:38:12;;;;;;;9.98;8.38;;;14.60;99.90;;;;;;5057641;28;20033;-65
2023/05/09 02:40:38;;;;;;;10.57;7.85;;;14.80;99.90;;;;;;5057804;28;20035;-65
2023/05/09 02:43:04;;;;;;;9.80;7.90;;;14.80;99.90;;;;;;5073573;28;20086;-65
2023/05/09 02:45:31;;;;;;;13.50;8.52;;;14.90;99.90;;;;;;5057787;28;20116;-66
2023/05/09 02:47:57;;;;;;;11.73;7.97;;;15.00;99.90;;;;;;5056883;28;20072;-65
2023/05/09 02:50:22;;;;;;;9.50;7.90;;;14.90;99.90;;;;;;5057763;28;20071;-65
2023/05/09 02:52:48;;;;;;;12.23;8.15;;;14.90;99.90;;;;;;5057517;28;20396;-65
2023/05/09 02:55:14;;;;;;;10.10;8.13;;;14.90;99.90;;;;;;5057520;28;20120;-65
2023/05/09 02:57:41;;;;;;;11.05;9.27;;;14.90;99.90;;;;;;5056752;28;20411;-64
2023/05/09 03:00:08;;;;;;;13.05;9.00;;;14.90;99.90;;;;;;5057442;28;20033;-65
2023/05/09 03:02:35;;;;;;;11.68;9.13;;;14.90;99.90;;;;;;5040423;28;20037;-65
2023/05/09 03:05:02;;;;;;;12.15;8.45;;;14.90;99.90;;;;;;5072920;28;20072;-65
2023/05/09 03:07:28;;;;;;;9.48;8.15;;;14.90;99.90;;;;;;5057282;28;20065;-64
2023/05/09 03:09:54;;;;;;;10.63;8.15;;;14.70;99.90;;;;;;5056535;28;20044;-65
2023/05/09 03:12:20;;;;;;;12.07;7.85;;;14.70;99.90;;;;;;5056594;28;20036;-65
2023/05/09 03:14:50;;;;;;;8.63;7.50;;;14.70;99.90;;;;;;5072976;28;20457;-65
2023/05/09 03:17:19;;;;;;;9.98;7.88;;;14.70;99.90;;;;;;5057084;28;20064;-66
2023/05/09 03:19:49;;;;;;;9.30;7.35;;;14.70;99.90;;;;;;5057198;28;20021;-65
2023/05/09 03:22:15;;;;;;;11.05;7.15;;;14.70;99.90;;;;;;5057077;28;20029;-66
2023/05/09 03:24:50;;;;;;;10.80;7.63;;;14.70;99.90;;;;;;5073177;28;20029;-66
2023/05/09 03:27:16;;;;;;;9.48;7.15;;;14.90;99.90;;;;;;5023630;28;20101;-65
2023/05/09 03:29:42;;;;;;;8.57;6.60;;;15.10;99.90;;;;;;5056188;28;20037;-66
2023/05/09 03:32:10;;;;;;;14.82;11.15;;;15.20;99.90;;;;;;5056469;28;20044;-65
2023/05/09 03:34:36;;;;;;;10.82;7.28;;;15.20;99.90;;;;;;5056753;28;20025;-65
2023/05/09 03:37:02;;;;;;;10.65;7.30;;;15.20;99.90;;;;;;5072903;28;20037;-65
2023/05/09 03:39:29;;;;;;;11.48;6.85;;;15.00;99.90;;;;;;5056261;28;20028;-65
2023/05/09 03:41:56;;;;;;;9.15;7.07;;;15.10;99.90;;;;;;5072713;28;20036;-66
2023/05/09 03:44:22;;;;;;;9.65;7.55;;;15.10;99.90;;;;;;5039530;28;20033;-65
2023/05/09 03:46:48;;;;;;;9.07;6.90;;;15.20;99.90;;;;;;5056931;28;20035;-66
2023/05/09 03:49:15;;;;;;;8.85;6.55;;;15.20;99.90;;;;;;5072665;28;20400;-64
2023/05/09 03:51:41;;;;;;;9.50;6.97;;;15.20;99.90;;;;;;5072649;28;20110;-65
2023/05/09 03:54:11;;;;;;;10.68;7.15;;;15.00;99.90;;;;;;5072564;28;20033;-65
2023/05/09 03:56:37;;;;;;;8.45;6.55;;;14.70;99.90;;;;;;5055929;28;20033;-66
2023/05/09 03:59:03;;;;;;;9.52;6.70;;;14.70;99.90;;;;;;5039192;28;20435;-66
2023/05/09 04:01:29;;;;;;;8.70;6.82;;;14.80;99.90;;;;;;5072480;28;20029;-66
2023/05/09 04:03:57;;;;;;;11.85;7.22;;;14.90;99.90;;;;;;5072153;28;20079;-66
2023/05/09 04:06:24;;;;;;;7.72;6.07;;;15.10;99.90;;;;;;5056794;28;20033;-65
2023/05/09 04:08:50;;;;;;;9.55;6.07;;;15.10;99.90;;;;;;5072552;28;20475;-64
2023/05/09 04:11:17;;;;;;;10.57;7.32;;;15.10;99.90;;;;;;5072161;28;20021;-67
2023/05/09 04:13:45;;;;;;;9.68;6.45;;;15.30;99.90;;;;;;5071899;28;20087;-65
2023/05/09 04:16:32;;;;;;;8.20;7.13;;;15.10;99.90;;;;;;5056104;28;20408;-64
2023/05/09 04:18:58;;;;;;;9.32;6.60;;;15.00;99.90;;;;;;5072187;28;20033;-63
2023/05/09 04:21:24;;;;;;;9.25;7.30;;;15.00;99.90;;;;;;5072354;28;20363;-61
2023/05/09 04:23:53;;;;;;;10.85;7.53;;;14.70;99.90;;;;;;5056188;28;20025;-64
2023/05/09 04:26:25;;;;;;;10.20;7.30;;;14.70;99.90;;;;;;5072388;28;20029;-61
2023/05/09 04:28:54;;;;;;;10.82;7.07;;;14.80;99.90;;;;;;5055500;28;20037;-61
2023/05/09 04:31:20;;;;;;;9.65;7.80;;;14.70;99.90;;;;;;5056108;28;20166;-60
2023/05/09 04:33:49;;;;;;;11.50;7.72;;;14.70;99.90;;;;;;5072059;28;20420;-61
2023/05/09 04:36:15;;;;;;;13.13;8.02;;;14.80;99.90;;;;;;5055847;28;20029;-61
2023/05/09 04:38:41;;;;;;;14.10;8.52;;;14.80;99.90;;;;;;5072043;28;20130;-61
2023/05/09 04:41:11;;;;;;;11.95;7.93;;;14.80;99.90;;;;;;5072091;28;20039;-61
2023/05/09 04:43:37;;;;;;;11.18;8.30;;;14.70;99.90;;;;;;5072094;28;20409;-61
2023/05/09 04:46:03;;;;;;;10.80;7.97;;;14.60;99.90;;;;;;5072032;28;20083;-63
2023/05/09 04:48:30;;;;;;;11.02;8.13;;;14.60;99.90;;;;;;5055448;28;20337;-61
2023/05/09 04:50:56;;;;;;;12.35;8.35;;;14.70;99.90;;;;;;5056175;28;20119;-62
2023/05/09 04:53:22;;;;;;;13.45;8.93;;;14.80;99.90;;;;;;5059232;28;20056;-65
2023/05/09 04:55:47;;;;;;;11.73;8.75;;;14.90;99.90;;;;;;5075716;28;20036;-64
2023/05/09 04:58:13;;;;;;;11.73;8.48;;;14.90;99.90;;;;;;5075399;28;20029;-64
2023/05/09 05:00:40;;;;;;;13.60;9.10;;;15.00;99.90;;;;;;5058743;28;20278;-62
2023/05/09 05:03:07;;;;;;;11.95;8.23;;;14.90;99.90;;;;;;5075255;28;20025;-64
2023/05/09 05:05:33;;;;;;;11.40;8.23;;;14.90;99.90;;;;;;5058676;28;20415;-63
2023/05/09 05:08:00;;;;;;;12.38;9.13;;;14.70;99.90;;;;;;5058649;28;20083;-64
2023/05/09 05:10:31;;;;;;;13.17;8.93;;;14.70;99.90;;;;;;5075355;28;20025;-63
2023/05/09 05:13:06;;;;;;;11.57;8.32;;;14.80;99.90;;;;;;5075565;28;20049;-65
2023/05/09 05:15:34;;;;;;;11.32;8.68;;;14.90;99.90;;;;;;5075215;28;20095;-65
2023/05/09 05:18:00;;;;;;;14.05;9.40;;;14.90;99.90;;;;;;5058813;28;20037;-65
2023/05/09 05:20:31;;;;;;;13.70;8.77;;;15.10;99.90;;;;;;5075233;28;20036;-61
2023/05/09 05:22:57;;;;;;;14.02;8.98;;;14.90;99.90;;;;;;5075153;28;20347;-63
2023/05/09 05:25:24;;;;;;;13.48;9.15;;;14.90;99.90;;;;;;5075179;28;20059;-62
2023/05/09 05:27:51;;;;;;;11.35;9.07;;;14.80;99.90;;;;;;5074888;28;20043;-62
2023/05/09 05:30:17;;;;;;;11.57;9.30;;;14.80;99.90;;;;;;5075055;28;20112;-61
2023/05/09 05:32:43;;;;;;;12.27;8.57;;;14.80;99.90;;;;;;5059127;28;20270;-64
2023/05/09 05:35:11;;;;;;;12.52;8.80;;;14.70;99.90;;;;;;5074915;28;20029;-65
2023/05/09 05:37:39;;;;;;;11.75;9.15;;;14.90;99.90;;;;;;5074660;28;20110;-69
2023/05/09 05:40:05;;;;;;;13.85;9.50;;;14.90;99.90;;;;;;5058966;28;20037;-69
2023/05/09 05:42:32;;;;;;;17.48;9.90;;;14.80;99.90;;;;;;5057749;28;20029;-68
2023/05/09 05:45:04;;;;;;;13.60;9.65;;;14.90;99.90;;;;;;5058722;28;20041;-65
2023/05/09 05:47:35;;;;;;;12.45;9.57;;;14.90;99.90;;;;;;5074656;28;20024;-62
2023/05/09 05:50:05;;;;;;;10.32;9.23;;;14.70;99.90;;;;;;5058894;28;20028;-60
2023/05/09 05:52:32;;;;;;;15.55;9.95;;;14.80;99.90;;;;;;5074396;28;20075;-61
2023/05/09 05:54:59;;;;;;;15.27;10.40;;;14.80;99.90;;;;;;5074436;28;20416;-61
2023/05/09 05:57:25;;;;;;;12.38;9.80;;;14.90;99.90;;;;;;5074308;28;20125;-62
2023/05/09 05:59:51;;;;;;;14.00;9.32;;;14.90;99.90;;;;;;5074562;28;20178;-63
2023/05/09 06:02:18;;;;;;;11.30;9.18;;;14.70;99.90;;;;;;5074625;28;20060;-61
2023/05/09 06:04:44;;;;;;;12.02;9.02;;;14.60;99.90;;;;;;5039958;28;20064;-64
2023/05/09 06:07:12;;;;;;;13.15;7.80;;;14.40;99.90;;;;;;5057522;28;20124;-60
2023/05/09 06:09:38;;;;;;;10.63;7.47;;;14.40;99.90;;;;;;5057559;28;20086;-63
2023/05/09 06:12:05;;;;;;;10.25;7.85;;;14.50;99.90;;;;;;5074147;28;20297;-63
2023/05/09 06:14:31;;;;;;;12.20;8.20;;;14.50;99.90;;;;;;5074084;28;20067;-62
2023/05/09 06:16:58;;;;;;;11.68;8.98;;;14.50;99.90;;;;;;5074077;28;20029;-61
2023/05/09 06:19:24;;;;;;;11.60;8.45;;;14.60;99.90;;;;;;5057274;28;20021;-61
2023/05/09 06:21:50;;;;;;;11.18;9.20;;;14.60;99.90;;;;;;5057200;28;20025;-60
2023/05/09 06:24:16;;;;;;;10.00;8.88;;;14.70;99.90;;;;;;5073778;28;20035;-61
2023/05/09 06:26:42;;;;;;;10.15;8.77;;;14.70;99.90;;;;;;5058402;28;20033;-63
2023/05/09 06:29:08;;;;;;;10.57;8.68;;;14.80;99.90;;;;;;5073829;28;20044;-65
2023/05/09 06:31:37;;;;;;;11.25;8.82;;;14.90;99.90;;;;;;5057167;28;20028;-62
2023/05/09 06:34:03;;;;;;;13.23;9.20;;;15.00;99.90;;;;;;5073702;28;20419;-62
2023/05/09 06:36:31;;;;;;;10.43;8.50;;;15.20;99.90;;;;;;5057118;28;20059;-63
2023/05/09 06:38:57;;;;;;;10.07;8.20;;;15.10;99.90;;;;;;5040584;28;20037;-64
2023/05/09 06:41:23;;;;;;;11.27;8.48;;;15.00;99.90;;;;;;5056933;28;20086;-63
2023/05/09 06:43:48;;;;;;;12.63;9.13;;;15.00;99.90;;;;;;5056754;28;20056;-66
2023/05/09 06:46:14;;;;;;;11.85;8.55;;;15.10;99.90;;;;;;5058149;28;20029;-63
2023/05/09 06:48:40;;;;;;;11.05;8.38;;;15.20;99.90;;;;;;5073326;28;20423;-63
2023/05/09 06:51:07;;;;;;;11.50;9.05;;;15.10;99.90;;;;;;5056832;28;20037;-64
2023/05/09 06:53:32;;;;;;;12.82;8.90;;;15.30;99.90;;;;;;5056929;28;20380;-63
2023/05/09 06:55:58;;;;;;;9.27;8.38;;;15.30;99.90;;;;;;5056844;28;20033;-65
2023/05/09 06:58:25;;;;;;;11.55;8.60;;;15.30;99.90;;;;;;5057264;28;20120;-67
2023/05/09 07:00:51;;;;;;;9.90;8.70;;;15.10;99.90;;;;;;5073243;28;20354;-64
2023/05/09 07:03:17;;;;;;;11.38;8.32;;;15.20;99.90;;;;;;5073147;28;20025;-64
2023/05/09 07:05:43;;;;;;;11.13;9.48;;;15.40;99.90;;;;;;5056531;28;20040;-65
2023/05/09 07:08:08;;;;;;;9.65;8.57;;;15.30;99.90;;;;;;5056730;28;20123;-65
2023/05/09 07:10:35;;;;;;;9.95;8.52;;;15.40;99.90;;;;;;5056590;28;20025;-66
2023/05/09 07:13:01;;;;;;;12.80;9.20;;;15.10;99.90;;;;;;5057197;28;20446;-69
2023/05/09 07:15:27;;;;;;;10.90;9.00;;;15.00;99.90;;;;;;5056788;28;20029;-65
2023/05/09 07:17:53;;;;;;;14.88;9.57;;;14.90;99.90;;;;;;5057380;28;20090;-65
2023/05/09 07:20:18;;;;;;;12.13;9.20;;;14.80;99.90;;;;;;5072967;28;20120;-66
2023/05/09 07:22:44;;;;;;;11.38;10.18;;;14.80;99.90;;;;;;5056597;28;20411;-72
2023/05/09 07:25:10;;;;;;;12.55;9.77;;;14.90;99.90;;;;;;5073034;28;20093;-65
2023/05/09 07:27:36;;;;;;;12.77;10.10;;;14.80;99.90;;;;;;5057076;28;20028;-66
2023/05/09 07:30:03;;;;;;;10.80;9.70;;;15.00;99.90;;;;;;5073322;28;20350;-66
2023/05/09 07:32:29;;;;;;;11.65;9.48;;;14.90;99.90;;;;;;5072978;28;20041;-66
2023/05/09 07:34:55;;;;;;;13.02;10.02;;;15.00;99.90;;;;;;5056739;28;20427;-65
2023/05/09 07:37:21;;;;;;;11.95;9.60;;;15.10;99.90;;;;;;5056540;28;20029;-65
2023/05/09 07:39:47;;;;;;;11.07;9.90;;;15.10;99.90;;;;;;5072688;28;20495;-65
2023/05/09 07:42:13;;;;;;;10.27;9.20;;;15.20;99.90;;;;;;5072709;28;20426;-68
2023/05/09 07:44:39;;;;;;;10.95;9.52;;;15.20;99.90;;;;;;5056800;28;20055;-68
2023/05/09 07:47:05;;;;;;;11.63;9.38;;;15.10;99.90;;;;;;5057129;28;20266;-66
2023/05/09 07:49:31;;;;;;;11.80;9.55;;;15.10;99.90;;;;;;5056739;28;20033;-65
2023/05/09 07:51:57;;;;;;;12.07;9.38;;;15.30;99.90;;;;;;5056572;28;20336;-65
2023/05/09 07:54:23;;;;;;;10.90;9.05;;;15.30;99.90;;;;;;5072436;28;20094;-65
2023/05/09 07:56:49;;;;;;;9.35;8.40;;;15.30;99.90;;;;;;5056987;28;20037;-67
2023/05/09 07:59:15;;;;;;;11.45;8.85;;;15.20;99.90;;;;;;5056429;28;20052;-64
2023/05/09 08:01:41;;;;;;;11.18;9.27;;;15.30;99.90;;;;;;5056566;28;20025;-65
2023/05/09 08:04:08;;;;;;;10.95;8.88;;;15.20;99.90;;;;;;5056419;28;20052;-63
2023/05/09 08:06:35;;;;;;;10.50;8.70;;;15.30;99.90;;;;;;5057043;28;20021;-63
2023/05/09 08:09:04;;;;;;;9.60;8.57;;;15.20;99.90;;;;;;5072696;28;20060;-65
2023/05/09 08:11:34;;;;;;;9.80;8.80;;;15.20;99.90;;;;;;5073045;28;20033;-66
2023/05/09 08:14:00;;;;;;;11.02;9.02;;;15.20;99.90;;;;;;5072280;28;20048;-64
2023/05/09 08:16:26;;;;;;;10.68;8.32;;;15.20;99.90;;;;;;5056590;28;20127;-65
2023/05/09 08:18:53;;;;;;;11.15;8.77;;;15.20;99.90;;;;;;5056354;28;20376;-62
2023/05/09 08:21:20;;;;;;;10.15;8.77;;;15.20;99.90;;;;;;5055644;28;20047;-64
2023/05/09 08:23:46;;;;;;;11.07;8.50;;;15.20;99.90;;;;;;5038898;28;20075;-64
2023/05/09 08:26:11;;;;;;;9.77;8.63;;;15.30;99.90;;;;;;5056404;28;20029;-63
2023/05/09 08:28:37;;;;;;;9.50;7.85;;;15.40;99.90;;;;;;5060130;28;20033;-63
2023/05/09 08:31:03;;;;;;;10.45;8.30;;;15.50;99.90;;;;;;5059736;28;20047;-63
2023/05/09 08:33:29;;;;;;;10.10;8.45;;;15.60;99.90;;;;;;5059583;28;20037;-66
2023/05/09 08:35:55;;;;;;;11.27;8.88;;;15.60;99.90;;;;;;5060173;28;20102;-66
2023/05/09 08:38:23;;;;;;;10.18;7.85;;;15.50;99.90;;;;;;5059547;28;20033;-65
2023/05/09 08:40:49;;;;;;;11.00;8.80;;;15.40;99.90;;;;;;5059983;28;20104;-64
2023/05/09 08:43:18;;;;;;;9.85;8.25;;;15.40;99.90;;;;;;5059183;28;20120;-64
2023/05/09 08:45:53;;;;;;;14.18;8.50;;;15.40;99.90;;;;;;5059889;28;20037;-64
2023/05/09 08:48:19;;;;;;;10.40;9.10;;;15.50;99.90;;;;;;5060146;28;20033;-64
2023/05/09 08:50:46;;;;;;;10.18;8.85;;;15.50;99.90;;;;;;5059948;28;20037;-64
2023/05/09 08:53:13;;;;;;;11.60;9.32;;;15.50;99.90;;;;;;5060029;28;20116;-64
2023/05/09 08:55:39;;;;;;;12.32;8.77;;;15.40;99.90;;;;;;5059868;28;20083;-65
2023/05/09 08:58:05;;;;;;;13.77;9.07;;;15.20;99.90;;;;;;5059762;28;20044;-65
2023/05/09 09:00:32;;;;;;;9.77;8.77;;;15.10;99.90;;;;;;5059719;28;20025;-67
2023/05/09 09:03:01;;;;;;;10.07;8.70;;;15.00;99.90;;;;;;5059147;28;20297;-65
2023/05/09 09:05:29;;;;;;;10.35;8.48;;;15.10;99.90;;;;;;5075365;28;20037;-63
2023/05/09 09:07:57;;;;;;;12.77;8.90;;;15.30;99.90;;;;;;5059434;28;20040;-68
2023/05/09 09:10:25;;;;;;;10.05;8.40;;;15.30;99.90;;;;;;5075437;28;20047;-64
2023/05/09 09:12:56;;;;;;;11.57;9.48;;;15.30;99.90;;;;;;5042117;28;20036;-67
2023/05/09 09:15:25;;;;;;;11.68;9.07;;;15.20;99.90;;;;;;5058898;28;20061;-66
2023/05/09 09:17:55;;;;;;;10.38;9.27;;;15.10;99.90;;;;;;5058599;28;20033;-65
2023/05/09 09:20:22;;;;;;;11.07;9.88;;;15.20;99.90;;;;;;5059439;28;20033;-66
2023/05/09 09:22:51;;;;;;;11.65;8.50;;;15.20;99.90;;;;;;5058807;28;20397;-66
2023/05/09 09:25:17;;;;;;;11.60;9.00;;;15.20;99.90;;;;;;5059834;28;20420;-69
2023/05/09 09:27:42;;;;;;;9.98;8.50;;;15.20;99.90;;;;;;5059212;28;20053;-64
2023/05/09 09:30:10;;;;;;;12.35;9.13;;;15.30;99.90;;;;;;5058442;28;20036;-65
2023/05/09 09:32:38;;;;;;;10.20;9.18;;;15.30;99.90;;;;;;5075385;28;20043;-67
2023/05/09 09:35:06;;;;;;;9.52;8.20;;;15.20;99.90;;;;;;5041664;28;20037;-67
2023/05/09 09:37:38;;;;;;;12.02;7.95;;;15.30;99.90;;;;;;5058283;28;20033;-65
2023/05/09 09:40:10;;;;;;;11.15;8.43;;;15.20;99.90;;;;;;5059029;28;20082;-61
2023/05/09 09:42:44;;;;;;;9.43;8.50;;;15.30;99.90;;;;;;5058977;28;20082;-65
2023/05/09 09:45:11;;;;;;;9.43;8.00;;;15.30;99.90;;;;;;5058840;28;20025;-66
2023/05/09 09:47:37;;;;;;;9.95;8.18;;;15.40;99.90;;;;;;5058782;28;20032;-64
2023/05/09 09:50:11;;;;;;;10.73;7.60;;;15.60;99.90;;;;;;5058703;28;20055;-64
2023/05/09 09:52:51;;;;;;;9.77;8.00;;;15.80;99.90;;;;;;5057985;28;20041;-66
2023/05/09 09:55:18;;;;;;;8.75;7.53;;;15.70;99.90;;;;;;5058694;28;20049;-62
2023/05/09 09:57:45;;;;;;;9.13;7.55;;;15.70;99.90;;;;;;5058457;28;20079;-69
2023/05/09 10:00:13;;;;;;;8.88;7.43;;;15.50;99.90;;;;;;5058608;28;20040;-62
2023/05/09 10:02:53;;;;;;;7.88;7.07;;;15.40;99.90;;;;;;5074285;28;20021;-66
2023/05/09 10:05:25;;;;;;;10.73;7.50;;;15.30;99.90;;;;;;5058459;28;20049;-62
2023/05/09 10:07:54;;;;;;;9.23;7.70;;;15.20;99.90;;;;;;5058403;28;20108;-65
2023/05/09 10:10:20;;;;;;;12.52;8.18;;;15.30;99.90;;;;;;5057762;28;20414;-69
2023/05/09 10:12:47;;;;;;;9.18;7.00;;;15.40;99.90;;;;;;5058239;28;20035;-66
2023/05/09 10:15:19;;;;;;;8.98;7.80;;;15.40;99.90;;;;;;5058303;28;20292;-72
2023/05/09 10:17:44;;;;;;;8.13;7.40;;;15.20;99.90;;;;;;5058229;28;20072;-64
2023/05/09 10:20:12;;;;;;;9.35;7.47;;;15.10;99.90;;;;;;5058736;28;20300;-69
2023/05/09 10:22:39;;;;;;;10.60;7.85;;;15.10;99.90;;;;;;5058055;28;20037;-65
2023/05/09 10:25:12;;;;;;;10.05;8.45;;;15.00;99.90;;;;;;5073843;28;20040;-65
2023/05/09 10:27:43;;;;;;;8.95;7.72;;;15.00;99.90;;;;;;5058142;28;20032;-69
2023/05/09 10:30:12;;;;;;;9.07;7.80;;;14.90;99.90;;;;;;5073964;28;20103;-67
2023/05/09 10:32:46;;;;;;;8.90;7.80;;;14.90;99.90;;;;;;5073721;28;20040;-65
2023/05/09 10:35:15;;;;;;;10.07;8.02;;;14.90;99.90;;;;;;5057973;28;20043;-64
2023/05/09 10:37:44;;;;;;;9.70;7.82;;;15.00;99.90;;;;;;5057961;28;20047;-70
2023/05/09 10:40:14;;;;;;;8.18;7.00;;;15.00;99.90;;;;;;5073852;28;20025;-69
2023/05/09 10:42:44;;;;;;;9.50;7.25;;;15.00;99.90;;;;;;5057839;28;20079;-69
2023/05/09 10:45:14;;;;;;;8.10;7.05;;;15.10;99.90;;;;;;5057948;28;20033;-63
2023/05/09 10:47:42;;;;;;;13.05;6.32;;;15.20;99.90;;;;;;5057725;28;20090;-70
2023/05/09 10:50:11;;;;;;;9.13;7.05;;;15.10;99.90;;;;;;5056613;28;20032;-72
2023/05/09 10:53:07;;;;;;;7.90;7.10;;;15.10;99.90;;;;;;5057557;28;20107;-73
2023/05/09 10:55:45;;;;;;;11.07;6.53;;;15.30;99.90;;;;;;5041035;28;20356;-68
2023/05/09 10:58:26;;;;;;;9.68;6.97;;;15.20;99.90;;;;;;5056656;28;20033;-66
2023/05/09 11:00:56;;;;;;;8.90;7.25;;;15.00;99.90;;;;;;5058128;28;20262;-69
2023/05/09 11:03:24;;;;;;;9.80;8.00;;;15.10;99.90;;;;;;5057255;28;20044;-67
2023/05/09 11:05:57;;;;;;;8.77;6.90;;;15.00;99.90;;;;;;5040797;28;20376;-70
2023/05/09 11:08:28;;;;;;;8.18;7.30;;;15.00;99.90;;;;;;5056624;28;20036;-64
2023/05/09 11:11:04;;;;;;;8.63;6.72;;;15.00;99.90;;;;;;5057146;28;20123;-70
2023/05/09 11:13:35;;;;;;;11.80;7.28;;;14.90;99.90;;;;;;5057364;28;20048;-67
2023/05/09 11:16:00;;;;;;;7.70;6.60;;;14.90;99.90;;;;;;5056416;28;20064;-61
2023/05/09 11:18:27;;;;;;;8.73;6.25;;;14.90;99.90;;;;;;5057029;28;20068;-62
2023/05/09 11:20:54;;;;;;;8.35;6.32;;;14.80;99.90;;;;;;5057066;28;20028;-64
2023/05/09 11:23:24;;;;;;;7.80;7.00;;;14.80;99.90;;;;;;5072859;28;20087;-64
2023/05/09 11:25:51;;;;;;;7.93;6.85;;;14.80;99.90;;;;;;5072825;28;20040;-62
2023/05/09 11:28:35;;;;;;;7.75;7.00;;;14.80;99.90;;;;;;5056797;28;20029;-60
2023/05/09 11:31:15;;;;;;;8.45;6.68;;;14.80;99.90;;;;;;5056758;28;20029;-61
2023/05/09 11:33:43;;;;;;;7.55;6.40;;;14.80;99.90;;;;;;5072609;28;20068;-60
2023/05/09 11:36:38;;;;;;;7.50;6.30;;;14.80;99.90;;;;;;5072790;28;20041;-59
2023/05/09 11:39:09;;;;;;;6.93;5.53;;;14.90;99.90;;;;;;5056712;28;20353;-59
2023/05/09 11:41:47;;;;;;;8.50;5.65;;;14.80;99.90;;;;;;5072754;28;20351;-57
2023/05/09 11:44:19;;;;;;;7.65;5.90;;;14.80;99.90;;;;;;5056803;28;20340;-56
2023/05/09 11:46:46;;;;;;;8.00;5.72;;;14.70;99.90;;;;;;5072795;28;20385;-61
2023/05/09 11:49:13;;;;;;;6.78;5.82;;;14.80;99.90;;;;;;5055999;28;20464;-57
2023/05/09 11:51:39;;;;;;;6.13;5.53;;;14.70;99.90;;;;;;5057140;28;20270;-57
2023/05/09 11:54:06;;;;;;;6.47;5.85;;;14.70;99.90;;;;;;5056781;28;20052;-60
2023/05/09 11:56:34;;;;;;;6.82;5.82;;;14.60;99.90;;;;;;5055989;28;20393;-59
2023/05/09 11:59:00;;;;;;;7.03;6.13;;;14.60;99.90;;;;;;5056633;28;20040;-60
2023/05/09 12:01:28;;;;;;;8.20;5.63;;;14.60;99.90;;;;;;5056233;28;20415;-62
2023/05/09 12:03:54;;;;;;;7.85;6.25;;;14.70;99.90;;;;;;5060625;28;20332;-58
2023/05/09 12:06:20;;;;;;;6.72;5.45;;;14.80;99.90;;;;;;5059965;28;20033;-57
2023/05/09 12:08:47;;;;;;;8.30;6.10;;;14.80;99.90;;;;;;5060796;28;20040;-60
2023/05/09 12:11:14;;;;;;;8.10;5.82;;;14.70;99.90;;;;;;5061328;28;20059;-62
2023/05/09 12:13:51;;;;;;;7.32;5.45;;;14.80;99.90;;;;;;5060597;28;20036;-61
2023/05/09 12:16:18;;;;;;;10.40;5.20;;;14.80;99.90;;;;;;5060654;28;20056;-63
2023/05/09 12:18:46;;;;;;;6.00;4.32;;;14.70;99.90;;;;;;5060460;28;20025;-59
2023/05/09 12:21:12;;;;;;;3.78;2.92;;;14.60;99.90;;;;;;5060999;28;20347;-58
2023/05/09 12:23:38;;;;;;;3.83;3.10;;;14.50;99.90;;;;;;5060333;28;20032;-57
2023/05/09 12:26:04;;;;;;;3.95;2.60;;;14.50;99.90;;;;;;5060415;28;20029;-57
2023/05/09 12:28:30;;;;;;;5.45;2.63;;;14.40;99.90;;;;;;5059595;28;20037;-57
2023/05/09 12:30:57;;;;;;;3.03;2.30;;;14.40;99.90;;;;;;5076322;28;20067;-60
2023/05/09 12:33:23;;;;;;;1.95;1.70;;;14.20;99.90;;;;;;5059664;28;20029;-57
2023/05/09 12:36:04;;;;;;;3.45;2.40;;;14.10;99.90;;;;;;5060180;28;20037;-57
2023/05/09 12:38:31;;;;;;;2.70;2.08;;;14.10;99.90;;;;;;5060023;28;20274;-57
2023/05/09 12:41:05;;;;;;;3.13;2.17;;;14.00;99.90;;;;;;5076176;28;20308;-57
2023/05/09 12:43:41;;;;;;;2.45;2.25;;;14.00;99.90;;;;;;5060011;28;20033;-57
2023/05/09 12:46:07;;;;;;;4.60;2.63;;;13.90;99.90;;;;;;5060079;28;20060;-55